createdAt,value
2023-02-18T00:01:29.746Z,6.69
2023-02-18T00:03:57.797Z,6.62
2023-02-18T00:06:27.821Z,6.56
2023-02-18T00:08:56.614Z,6.47
2023-02-18T00:11:23.922Z,6.41
2023-02-18T00:13:56.658Z,6.34
2023-02-18T00:16:25.417Z,6.26
2023-02-18T00:19:01.037Z,6.20
2023-02-18T00:21:28.746Z,6.15
2023-02-18T00:23:55.484Z,6.11
2023-02-18T00:26:22.879Z,6.11
2023-02-18T00:28:51.084Z,6.07
2023-02-18T00:31:23.902Z,6.04
2023-02-18T00:33:51.137Z,6.04
2023-02-18T00:36:19.518Z,5.98
2023-02-18T00:38:48.694Z,5.92
2023-02-18T00:41:16.146Z,5.87
2023-02-18T00:43:43.129Z,5.80
2023-02-18T00:46:11.167Z,5.76
2023-02-18T00:48:38.471Z,5.72
2023-02-18T00:51:06.808Z,5.68
2023-02-18T00:53:34.440Z,5.62
2023-02-18T00:56:01.594Z,5.54
2023-02-18T00:58:28.353Z,5.45
2023-02-18T01:00:55.487Z,5.45
2023-02-18T01:03:23.234Z,5.45
2023-02-18T01:05:50.727Z,5.44
2023-02-18T01:08:19.445Z,5.48
2023-02-18T01:10:48.901Z,5.50
2023-02-18T01:13:16.207Z,5.52
2023-02-18T01:15:43.848Z,5.55
2023-02-18T01:18:10.825Z,5.55
2023-02-18T01:20:40.010Z,5.52
2023-02-18T01:23:07.930Z,5.51
2023-02-18T01:25:35.264Z,5.47
2023-02-18T01:28:04.571Z,5.43
2023-02-18T01:30:31.644Z,5.37
2023-02-18T01:32:59.170Z,5.29
2023-02-18T01:35:25.920Z,5.25
2023-02-18T01:37:54.897Z,5.21
2023-02-18T01:40:25.905Z,5.18
2023-02-18T01:42:54.060Z,5.15
2023-02-18T01:45:33.098Z,5.16
2023-02-18T01:48:05.306Z,5.18
2023-02-18T01:50:35.320Z,5.16
2023-02-18T01:53:03.284Z,5.10
2023-02-18T01:55:32.378Z,5.05
2023-02-18T01:57:59.450Z,5.02
2023-02-18T02:05:35.593Z,4.91
2023-02-18T02:08:03.905Z,4.92
2023-02-18T02:10:37.785Z,4.92
2023-02-18T02:13:13.541Z,4.91
2023-02-18T02:16:03.415Z,4.89
2023-02-18T02:18:52.068Z,4.89
2023-02-18T02:21:27.661Z,4.90
2023-02-18T02:24:12.562Z,4.90
2023-02-18T02:27:21.975Z,4.90
2023-02-18T02:30:28.171Z,4.89
2023-02-18T02:33:13.238Z,4.87
2023-02-18T02:35:57.967Z,4.84
2023-02-18T02:38:37.687Z,4.82
2023-02-18T02:41:26.396Z,4.79
2023-02-18T02:44:31.817Z,4.76
2023-02-18T02:47:07.452Z,4.74
2023-02-18T02:49:47.288Z,4.72
2023-02-18T02:52:28.046Z,4.68
2023-02-18T02:54:54.934Z,4.66
2023-02-18T02:57:21.827Z,4.64
2023-02-18T03:00:18.291Z,4.61
2023-02-18T03:03:10.035Z,4.61
2023-02-18T03:06:02.693Z,4.61
2023-02-18T03:08:35.417Z,4.54
2023-02-18T03:11:09.806Z,4.49
2023-02-18T03:14:08.754Z,4.43
2023-02-18T03:17:09.582Z,4.40
2023-02-18T03:19:42.141Z,4.38
2023-02-18T03:22:16.578Z,4.37
2023-02-18T03:24:46.388Z,4.35
2023-02-18T03:27:19.629Z,4.34
2023-02-18T03:29:52.118Z,4.34
2023-02-18T03:32:21.911Z,4.33
2023-02-18T03:34:55.038Z,4.31
2023-02-18T03:37:23.042Z,4.27
2023-02-18T03:39:55.927Z,4.25
2023-02-18T03:42:27.741Z,4.23
2023-02-18T03:44:55.086Z,4.21
2023-02-18T03:47:23.717Z,4.18
2023-02-18T03:49:50.624Z,4.14
2023-02-18T03:52:17.458Z,4.10
2023-02-18T03:54:44.106Z,4.08
2023-02-18T03:57:10.845Z,4.04
2023-02-18T03:59:37.703Z,4.00
2023-02-18T04:02:04.398Z,3.98
2023-02-18T04:04:31.199Z,3.96
2023-02-18T04:06:58.155Z,3.95
2023-02-18T04:09:24.857Z,3.95
2023-02-18T04:11:51.681Z,3.93
2023-02-18T04:14:18.553Z,3.90
2023-02-18T04:16:45.252Z,3.84
2023-02-18T04:19:12.051Z,3.80
2023-02-18T04:21:38.997Z,3.79
2023-02-18T04:24:05.646Z,3.77
2023-02-18T04:26:32.433Z,3.75
2023-02-18T04:28:59.234Z,3.74
2023-02-18T04:31:26.108Z,3.74
2023-02-18T04:33:53.010Z,3.72
2023-02-18T04:36:20.118Z,3.72
2023-02-18T04:38:46.797Z,3.73
2023-02-18T04:41:13.731Z,3.78
2023-02-18T04:43:40.699Z,3.83
2023-02-18T04:46:07.887Z,3.86
2023-02-18T04:48:34.976Z,3.90
2023-02-18T04:51:02.474Z,3.91
2023-02-18T04:53:29.304Z,3.92
2023-02-18T04:55:56.729Z,3.94
2023-02-18T04:58:23.701Z,3.95
2023-02-18T05:00:50.547Z,3.95
2023-02-18T05:03:17.439Z,3.95
2023-02-18T05:05:45.256Z,3.94
2023-02-18T05:08:12.105Z,3.90
2023-02-18T05:10:38.910Z,3.89
2023-02-18T05:13:05.910Z,3.87
2023-02-18T05:15:32.705Z,3.85
2023-02-18T05:17:59.507Z,3.81
2023-02-18T05:20:26.387Z,3.80
2023-02-18T05:22:53.166Z,3.80
2023-02-18T05:25:20.031Z,3.80
2023-02-18T05:27:47.066Z,3.79
2023-02-18T05:30:14.351Z,3.78
2023-02-18T05:32:43.050Z,3.76
2023-02-18T05:35:10.002Z,3.76
2023-02-18T05:37:37.038Z,3.75
2023-02-18T05:40:04.270Z,3.75
2023-02-18T05:42:32.384Z,3.75
2023-02-18T05:44:59.042Z,3.76
2023-02-18T05:47:25.773Z,3.76
2023-02-18T05:49:52.804Z,3.78
2023-02-18T05:52:19.455Z,3.76
2023-02-18T05:54:46.150Z,3.77
2023-02-18T05:57:14.747Z,3.76
2023-02-18T05:59:41.870Z,3.76
2023-02-18T06:02:08.642Z,3.78
2023-02-18T06:04:35.448Z,3.80
2023-02-18T06:07:02.165Z,3.82
2023-02-18T06:09:29.267Z,3.83
2023-02-18T06:11:56.180Z,3.82
2023-02-18T06:14:23.187Z,3.83
2023-02-18T06:16:50.060Z,3.85
2023-02-18T06:19:16.918Z,3.86
2023-02-18T06:21:43.637Z,3.88
2023-02-18T06:24:10.320Z,3.89
2023-02-18T06:26:37.192Z,3.89
2023-02-18T06:29:04.174Z,3.88
2023-02-18T06:31:31.012Z,3.90
2023-02-18T06:33:57.870Z,3.92
2023-02-18T06:36:24.525Z,3.93
2023-02-18T06:38:51.498Z,3.94
2023-02-18T06:41:18.371Z,3.97
2023-02-18T06:43:45.054Z,3.99
2023-02-18T06:46:12.011Z,4.02
2023-02-18T06:48:39.010Z,4.04
2023-02-18T06:51:06.236Z,4.05
2023-02-18T06:53:33.419Z,4.09
2023-02-18T06:56:00.214Z,4.13
2023-02-18T06:58:26.901Z,4.18
2023-02-18T07:00:53.643Z,4.22
2023-02-18T07:03:20.607Z,4.24
2023-02-18T07:05:47.544Z,4.25
2023-02-18T07:08:14.633Z,4.25
2023-02-18T07:10:41.504Z,4.25
2023-02-18T07:13:08.262Z,4.25
2023-02-18T07:15:35.021Z,4.25
2023-02-18T07:18:01.896Z,4.27
2023-02-18T07:20:28.752Z,4.27
2023-02-18T07:22:55.392Z,4.28
2023-02-18T07:25:23.422Z,4.28
2023-02-18T07:27:51.141Z,4.28
2023-02-18T07:30:21.662Z,4.31
2023-02-18T07:32:48.537Z,4.40
2023-02-18T07:35:16.181Z,4.45
2023-02-18T07:37:47.317Z,4.48
2023-02-18T07:40:17.574Z,4.51
2023-02-18T07:42:44.188Z,4.52
2023-02-18T07:45:11.485Z,4.56
2023-02-18T07:47:38.330Z,4.53
2023-02-18T07:50:06.153Z,4.53
2023-02-18T07:52:33.028Z,4.59
2023-02-18T07:55:00.192Z,4.71
2023-02-18T07:57:26.969Z,4.78
2023-02-18T07:59:53.654Z,4.94
2023-02-18T08:02:22.802Z,5.01
2023-02-18T08:04:49.680Z,5.03
2023-02-18T08:07:17.620Z,5.03
2023-02-18T08:09:44.597Z,5.03
2023-02-18T08:12:11.356Z,5.01
2023-02-18T08:14:38.429Z,5.05
2023-02-18T08:17:05.354Z,5.09
2023-02-18T08:19:31.974Z,5.10
2023-02-18T08:22:02.476Z,5.07
2023-02-18T08:24:29.455Z,5.05
2023-02-18T08:27:00.777Z,5.02
2023-02-18T08:41:08.103Z,5.63
2023-02-18T08:43:37.400Z,5.70
2023-02-18T08:46:06.010Z,5.65
2023-02-18T08:48:34.427Z,5.62
2023-02-18T08:51:32.061Z,5.60
2023-02-18T08:54:00.278Z,5.59
2023-02-18T08:56:28.610Z,5.58
2023-02-18T08:58:56.557Z,5.58
2023-02-18T09:01:25.161Z,5.54
2023-02-18T09:03:53.600Z,5.53
2023-02-18T09:06:21.989Z,5.56
2023-02-18T09:08:50.871Z,5.57
2023-02-18T09:11:19.960Z,5.60
2023-02-18T09:13:47.988Z,5.60
2023-02-18T09:16:18.771Z,5.56
2023-02-18T09:18:48.403Z,5.56
2023-02-18T09:21:19.126Z,5.53
2023-02-18T09:23:47.180Z,5.46
2023-02-18T09:26:17.948Z,5.44
2023-02-18T09:28:49.387Z,5.43
2023-02-18T09:31:20.590Z,5.41
2023-02-18T09:33:54.319Z,5.42
2023-02-18T09:36:26.220Z,5.43
2023-02-18T09:38:54.708Z,5.42
2023-02-18T09:41:42.271Z,5.41
2023-02-18T09:44:18.511Z,5.44
2023-02-18T09:46:51.286Z,5.48
2023-02-18T09:49:25.206Z,5.58
2023-02-18T09:51:57.471Z,5.66
2023-02-18T09:54:27.290Z,5.72
2023-02-18T09:56:55.886Z,5.79
2023-02-18T09:59:26.343Z,5.84
2023-02-18T10:02:17.544Z,5.87
2023-02-18T10:04:47.489Z,5.91
2023-02-18T10:07:23.613Z,6.00
2023-02-18T10:09:53.188Z,6.12
2023-02-18T10:12:24.159Z,6.17
2023-02-18T10:14:59.334Z,6.22
2023-02-18T10:17:31.551Z,6.24
2023-02-18T10:20:01.558Z,6.29
2023-02-18T10:22:31.937Z,6.35
2023-02-18T10:25:04.486Z,6.42
2023-02-18T10:27:39.122Z,6.53
2023-02-18T10:30:24.653Z,6.69
2023-02-18T10:32:58.266Z,6.82
2023-02-18T10:35:49.981Z,6.95
2023-02-18T10:38:40.264Z,7.09
2023-02-18T10:41:19.459Z,7.06
2023-02-18T10:44:10.614Z,7.05
2023-02-18T10:46:59.023Z,7.02
2023-02-18T10:50:04.778Z,6.98
2023-02-18T10:52:41.401Z,6.95
2023-02-18T10:55:18.457Z,6.93
2023-02-18T10:57:51.938Z,6.94
2023-02-18T11:00:25.358Z,6.97
2023-02-18T11:03:27.487Z,7.05
2023-02-18T11:05:56.823Z,7.18
2023-02-18T11:08:37.033Z,7.28
2023-02-18T11:11:37.113Z,7.36
2023-02-18T11:14:08.666Z,7.40
2023-02-18T11:16:43.349Z,7.41
2023-02-18T11:19:38.445Z,7.45
2023-02-18T11:22:19.880Z,7.54
2023-02-18T11:24:50.280Z,7.58
2023-02-18T11:27:27.418Z,7.65
2023-02-18T11:30:24.479Z,7.72
2023-02-18T11:32:59.770Z,7.78
2023-02-18T11:35:32.293Z,7.82
2023-02-18T11:38:03.802Z,7.79
2023-02-18T11:40:34.295Z,7.79
2023-02-18T11:43:16.425Z,7.80
2023-02-18T11:45:45.029Z,7.78
2023-02-18T11:48:19.251Z,7.76
2023-02-18T11:50:52.410Z,7.75
2023-02-18T11:53:33.168Z,7.79
2023-02-18T11:56:06.811Z,7.81
2023-02-18T11:58:43.308Z,7.81
2023-02-18T12:01:27.696Z,7.82
2023-02-18T12:04:12.960Z,7.84
2023-02-18T12:07:21.764Z,7.86
2023-02-18T12:09:55.085Z,7.91
2023-02-18T12:12:41.358Z,7.91
2023-02-18T12:15:19.399Z,7.87
2023-02-18T12:18:06.361Z,7.84
2023-02-18T12:32:17.344Z,7.49
2023-02-18T12:35:16.875Z,7.42
2023-02-18T12:38:39.011Z,7.40
2023-02-18T12:41:24.690Z,7.43
2023-02-18T12:44:08.237Z,7.44
2023-02-18T12:46:42.394Z,7.41
2023-02-18T12:50:04.524Z,7.32
2023-02-18T12:52:51.166Z,7.13
2023-02-18T12:55:28.993Z,6.87
2023-02-18T12:58:18.746Z,6.65
2023-02-18T13:01:08.450Z,6.52
2023-02-18T13:03:58.897Z,6.43
2023-02-18T13:06:48.514Z,6.34
2023-02-18T13:09:19.802Z,6.28
2023-02-18T13:11:52.564Z,6.20
2023-02-18T13:14:49.756Z,6.15
2023-02-18T13:17:21.362Z,6.12
2023-02-18T13:19:59.866Z,6.08
2023-02-18T13:22:30.594Z,6.03
2023-02-18T13:24:59.857Z,5.99
2023-02-18T13:27:43.816Z,5.98
2023-02-18T13:30:28.613Z,5.96
2023-02-18T13:33:27.195Z,5.89
2023-02-18T13:36:27.475Z,5.83
2023-02-18T13:39:20.832Z,5.82
2023-02-18T13:41:52.241Z,5.69
2023-02-18T13:44:24.010Z,5.58
2023-02-18T13:46:54.886Z,5.49
2023-02-18T13:49:34.605Z,5.41
2023-02-18T13:52:04.251Z,5.26
2023-02-18T13:54:52.146Z,5.15
2023-02-18T13:57:25.974Z,5.06
2023-02-18T13:59:59.091Z,4.96
2023-02-18T14:02:27.341Z,4.92
2023-02-18T14:05:15.989Z,4.89
2023-02-18T14:08:06.477Z,4.85
2023-02-18T14:10:36.950Z,4.73
2023-02-18T14:13:24.714Z,4.64
2023-02-18T14:15:57.041Z,4.55
2023-02-18T14:18:31.761Z,4.50
2023-02-18T14:21:06.322Z,4.50
2023-02-18T14:23:37.991Z,4.49
2023-02-18T14:26:08.994Z,4.48
2023-02-18T14:29:01.280Z,4.46
2023-02-18T14:31:50.515Z,4.46
2023-02-18T14:34:34.174Z,4.46
2023-02-18T14:37:26.740Z,4.42
2023-02-18T14:40:26.930Z,4.40
2023-02-18T14:43:04.063Z,4.38
2023-02-18T14:45:55.162Z,4.34
2023-02-18T14:48:54.140Z,4.37
2023-02-18T14:51:25.710Z,4.38
2023-02-18T14:53:54.062Z,4.43
2023-02-18T14:56:23.438Z,4.45
2023-02-18T14:58:57.599Z,4.46
2023-02-18T15:01:32.005Z,4.50
2023-02-18T15:04:02.363Z,4.51
2023-02-18T15:06:33.821Z,4.50
2023-02-18T15:09:14.233Z,4.51
2023-02-18T15:12:05.914Z,4.49
2023-02-18T15:14:53.157Z,4.50
2023-02-18T15:17:27.513Z,4.48
2023-02-18T15:19:59.059Z,4.48
2023-02-18T15:22:34.214Z,4.49
2023-02-18T15:25:03.243Z,4.50
2023-02-18T15:27:35.289Z,4.50
2023-02-18T15:30:03.786Z,4.48
2023-02-18T15:32:33.053Z,4.48
2023-02-18T15:35:04.103Z,4.46
2023-02-18T15:37:32.364Z,4.46
2023-02-18T15:40:00.581Z,4.44
2023-02-18T15:42:34.641Z,4.48
2023-02-18T15:45:25.774Z,4.48
2023-02-18T15:47:59.881Z,4.46
2023-02-18T15:50:37.764Z,4.46
2023-02-18T15:53:15.733Z,4.47
2023-02-18T15:55:49.383Z,4.46
2023-02-18T15:58:35.554Z,4.45
2023-02-18T16:01:06.673Z,4.41
2023-02-18T16:03:37.852Z,4.41
2023-02-18T16:06:19.912Z,4.43
2023-02-18T16:09:06.926Z,4.47
2023-02-18T16:11:40.436Z,4.48
2023-02-18T16:14:23.737Z,4.53
2023-02-18T16:17:06.754Z,4.54
2023-02-18T16:19:51.644Z,4.56
2023-02-18T16:22:27.427Z,4.58
2023-02-18T16:24:59.822Z,4.60
2023-02-18T16:27:37.180Z,4.59
2023-02-18T16:30:17.831Z,4.59
2023-02-18T16:32:46.722Z,4.62
2023-02-18T16:35:15.006Z,4.60
2023-02-18T16:37:45.456Z,4.60
2023-02-18T16:40:34.383Z,4.60
2023-02-18T16:43:11.929Z,4.61
2023-02-18T16:45:42.690Z,4.60
2023-02-18T16:48:35.719Z,4.57
2023-02-18T16:51:07.569Z,4.58
2023-02-18T16:53:35.646Z,4.63
2023-02-18T16:56:04.034Z,4.68
2023-02-18T16:58:32.407Z,4.75
2023-02-18T17:01:00.790Z,4.80
2023-02-18T17:03:30.526Z,4.82
2023-02-18T17:05:58.724Z,4.85
2023-02-18T17:08:27.340Z,4.87
2023-02-18T17:10:57.947Z,4.83
2023-02-18T17:13:29.032Z,4.75
2023-02-18T17:15:59.088Z,4.72
2023-02-18T17:18:27.308Z,4.74
2023-02-18T17:20:57.179Z,4.77
2023-02-18T17:23:25.471Z,4.74
2023-02-18T17:25:54.087Z,4.73
2023-02-18T17:28:23.279Z,4.67
2023-02-18T17:30:57.179Z,4.61
2023-02-18T17:33:25.786Z,4.59
2023-02-18T17:35:59.780Z,4.63
2023-02-18T17:38:28.161Z,4.65
2023-02-18T17:40:56.859Z,4.66
2023-02-18T17:43:25.862Z,4.70
2023-02-18T17:45:57.851Z,4.73
2023-02-18T17:48:27.143Z,4.76
2023-02-18T17:50:56.422Z,4.79
2023-02-18T17:53:25.066Z,4.75
2023-02-18T17:55:53.962Z,4.66
2023-02-18T17:58:22.219Z,4.64
2023-02-18T18:00:57.034Z,4.60
2023-02-18T18:03:25.487Z,4.62
2023-02-18T18:05:54.595Z,4.57
2023-02-18T18:08:23.410Z,4.53
2023-02-18T18:10:55.120Z,4.50
2023-02-18T18:13:29.507Z,4.47
2023-02-18T18:16:01.424Z,4.42
2023-02-18T18:18:29.481Z,4.38
2023-02-18T18:21:00.874Z,4.36
2023-02-18T18:23:29.425Z,4.34
2023-02-18T18:25:58.648Z,4.33
2023-02-18T18:28:27.634Z,4.33
2023-02-18T18:30:57.050Z,4.30
2023-02-18T18:33:30.264Z,4.29
2023-02-18T18:35:59.999Z,4.27
2023-02-18T18:38:29.859Z,4.26
2023-02-18T18:40:58.181Z,4.24
2023-02-18T18:43:32.493Z,4.21
2023-02-18T18:46:01.496Z,4.20
2023-02-18T18:48:30.383Z,4.16
2023-02-18T18:51:00.590Z,4.14
2023-02-18T18:53:31.824Z,4.13
2023-02-18T18:56:02.709Z,4.15
2023-02-18T18:58:36.578Z,4.16
2023-02-18T19:01:06.759Z,4.20
2023-02-18T19:03:35.632Z,4.22
2023-02-18T19:06:03.983Z,4.26
2023-02-18T19:08:32.407Z,4.28
2023-02-18T19:11:02.121Z,4.28
2023-02-18T19:13:32.745Z,4.27
2023-02-18T19:16:01.535Z,4.25
2023-02-18T19:18:30.081Z,4.23
2023-02-18T19:20:58.138Z,4.20
2023-02-18T19:23:26.566Z,4.17
2023-02-18T19:25:54.746Z,4.16
2023-02-18T19:28:22.781Z,4.17
2023-02-18T19:30:51.146Z,4.21
2023-02-18T19:33:19.581Z,4.20
2023-02-18T19:35:48.829Z,4.16
2023-02-18T19:38:18.445Z,4.07
2023-02-18T19:40:47.122Z,4.01
2023-02-18T19:43:15.354Z,3.98
2023-02-18T19:45:46.072Z,3.96
2023-02-18T19:48:16.498Z,3.91
2023-02-18T19:50:44.863Z,3.88
2023-02-18T19:53:12.968Z,3.88
2023-02-18T19:55:41.330Z,3.89
2023-02-18T19:58:09.604Z,3.88
2023-02-18T20:00:37.758Z,3.86
2023-02-18T20:03:06.230Z,3.84
2023-02-18T20:05:38.350Z,3.82
2023-02-18T20:08:06.489Z,3.80
2023-02-18T20:10:34.917Z,3.79
2023-02-18T20:13:05.190Z,3.79
2023-02-18T20:15:33.350Z,3.78
2023-02-18T20:18:01.475Z,3.75
2023-02-18T20:20:29.718Z,3.72
2023-02-18T20:22:57.742Z,3.68
2023-02-18T20:25:26.781Z,3.68
2023-02-18T20:28:01.153Z,3.67
2023-02-18T20:30:30.026Z,3.65
2023-02-18T20:32:58.438Z,3.60
2023-02-18T20:35:26.515Z,3.56
2023-02-18T20:37:54.725Z,3.54
2023-02-18T20:40:23.628Z,3.53
2023-02-18T20:42:51.746Z,3.51
2023-02-18T20:45:20.184Z,3.46
2023-02-18T20:47:48.568Z,3.43
2023-02-18T20:50:16.606Z,3.41
2023-02-18T20:52:44.961Z,3.38
2023-02-18T20:55:13.168Z,3.33
2023-02-18T20:57:41.209Z,3.28
2023-02-18T21:00:10.080Z,3.26
2023-02-18T21:02:38.315Z,3.22
2023-02-18T21:05:06.686Z,3.19
2023-02-18T21:07:34.746Z,3.15
2023-02-18T21:10:04.227Z,3.12
2023-02-18T21:12:32.224Z,3.10
2023-02-18T21:15:00.641Z,3.06
2023-02-18T21:17:28.894Z,3.06
2023-02-18T21:19:56.905Z,3.05
2023-02-18T21:22:26.201Z,3.05
2023-02-18T21:24:54.588Z,3.02
2023-02-18T21:27:22.626Z,2.97
2023-02-18T21:29:50.722Z,2.96
2023-02-18T21:32:19.145Z,2.95
2023-02-18T21:34:47.291Z,2.92
2023-02-18T21:37:15.385Z,2.89
2023-02-18T21:39:43.577Z,2.85
2023-02-18T21:42:11.665Z,2.83
2023-02-18T21:44:42.554Z,2.80
2023-02-18T21:47:12.161Z,2.78
2023-02-18T21:49:40.242Z,2.80
2023-02-18T21:52:08.672Z,2.82
2023-02-18T21:54:39.939Z,2.83
2023-02-18T21:57:10.429Z,2.84
2023-02-18T21:59:39.265Z,2.83
2023-02-18T22:02:14.755Z,2.82
2023-02-18T22:04:43.472Z,2.82
2023-02-18T22:07:12.167Z,2.83
2023-02-18T22:09:40.605Z,2.81
2023-02-18T22:12:11.229Z,2.82
2023-02-18T22:14:39.564Z,2.83
2023-02-18T22:17:07.871Z,2.80
2023-02-18T22:19:36.529Z,2.78
2023-02-18T22:22:04.640Z,2.77
2023-02-18T22:24:32.964Z,2.76
2023-02-18T22:27:01.978Z,2.75
2023-02-18T22:29:31.258Z,2.75
2023-02-18T22:32:00.051Z,2.75
2023-02-18T22:34:28.547Z,2.78
2023-02-18T22:36:56.719Z,2.79
2023-02-18T22:39:24.720Z,2.81
2023-02-18T22:41:53.294Z,2.83
2023-02-18T22:44:22.977Z,2.85
2023-02-18T22:46:51.185Z,2.84
2023-02-18T22:49:19.341Z,2.84
2023-02-18T22:51:51.712Z,2.85
2023-02-18T22:54:21.079Z,2.82
2023-02-18T22:56:49.634Z,2.79
2023-02-18T22:59:19.346Z,2.78
2023-02-18T23:01:50.589Z,2.79
2023-02-18T23:04:20.485Z,2.78
2023-02-18T23:06:49.810Z,2.77
2023-02-18T23:09:20.568Z,2.74
2023-02-18T23:11:57.539Z,2.71
2023-02-18T23:14:28.304Z,2.71
2023-02-18T23:17:14.350Z,2.72
2023-02-18T23:19:52.488Z,2.75
2023-02-18T23:22:33.703Z,2.76
2023-02-18T23:25:02.732Z,2.78
2023-02-18T23:27:30.861Z,2.81
2023-02-18T23:29:58.980Z,2.80
2023-02-18T23:32:29.149Z,2.80
2023-02-18T23:34:57.197Z,2.82
2023-02-18T23:37:45.434Z,2.78
2023-02-18T23:40:14.775Z,2.77
2023-02-18T23:42:42.805Z,2.75
2023-02-18T23:45:11.040Z,2.73
2023-02-18T23:47:39.339Z,2.73
2023-02-18T23:50:07.434Z,2.74
2023-02-18T23:52:35.701Z,2.76
2023-02-18T23:55:04.019Z,2.77
2023-02-18T23:57:32.610Z,2.78
